createdAt,value
2022-11-28T00:00:13.011Z,87.51
2022-11-28T00:05:36.422Z,87.05
2022-11-28T00:10:39.370Z,87.46
2022-11-28T00:15:41.394Z,86.86
2022-11-28T00:20:44.753Z,85.99
2022-11-28T00:25:46.709Z,86.48
2022-11-28T00:30:48.648Z,85.62
2022-11-28T00:35:57.589Z,85.31
2022-11-28T00:41:00.756Z,84.08
2022-11-28T00:46:03.280Z,79.95
2022-11-28T00:51:08.065Z,79.60
2022-11-28T00:56:11.466Z,80.11
2022-11-28T01:01:16.892Z,80.61
2022-11-28T01:06:26.596Z,81.28
2022-11-28T01:11:29.471Z,80.26
2022-11-28T01:16:31.527Z,79.74
2022-11-28T01:21:35.461Z,78.30
2022-11-28T01:26:38.974Z,77.63
2022-11-28T01:31:40.998Z,77.04
2022-11-28T01:36:44.330Z,76.73
2022-11-28T01:41:46.448Z,76.98
2022-11-28T01:46:48.412Z,78.39
2022-11-28T01:51:56.100Z,80.05
2022-11-28T01:57:01.424Z,79.63
2022-11-28T02:02:08.091Z,80.44
2022-11-28T02:07:11.524Z,80.43
2022-11-28T02:12:45.342Z,77.11
2022-11-28T02:18:00.941Z,76.04
2022-11-28T02:23:12.613Z,76.53
2022-11-28T02:28:35.951Z,74.82
2022-11-28T02:33:46.022Z,73.41
2022-11-28T02:38:54.074Z,71.40
2022-11-28T02:44:04.689Z,72.32
2022-11-28T02:49:13.454Z,74.39
2022-11-28T02:54:18.774Z,77.16
2022-11-28T02:59:31.730Z,78.83
2022-11-28T03:04:42.793Z,81.66
2022-11-28T03:09:57.069Z,81.06
2022-11-28T03:15:01.826Z,83.46
2022-11-28T03:20:14.878Z,84.71
2022-11-28T03:25:25.473Z,84.93
2022-11-28T03:30:32.522Z,85.14
2022-11-28T03:35:40.436Z,86.05
2022-11-28T03:40:46.892Z,86.69
2022-11-28T03:45:53.578Z,87.29
2022-11-28T03:51:02.900Z,86.95
2022-11-28T03:56:11.599Z,87.89
2022-11-28T04:01:21.019Z,88.26
2022-11-28T04:06:30.420Z,88.26
2022-11-28T04:11:38.928Z,87.83
2022-11-28T04:16:53.784Z,88.84
2022-11-28T04:22:03.302Z,89.84
2022-11-28T04:27:08.425Z,89.35
2022-11-28T04:32:13.932Z,89.15
2022-11-28T04:37:19.346Z,89.29
2022-11-28T04:42:25.225Z,90.40
2022-11-28T04:47:27.613Z,90.31
2022-11-28T04:52:36.357Z,90.11
2022-11-28T04:57:41.448Z,90.99
2022-11-28T05:02:45.899Z,90.75
2022-11-28T05:07:49.362Z,90.99
2022-11-28T05:12:51.428Z,91.10
2022-11-28T05:17:53.402Z,91.02
2022-11-28T05:22:56.767Z,91.06
2022-11-28T05:27:58.734Z,91.15
2022-11-28T05:33:01.051Z,90.85
2022-11-28T05:38:07.154Z,91.27
2022-11-28T05:43:11.637Z,91.00
2022-11-28T05:48:13.853Z,91.32
2022-11-28T05:53:17.810Z,90.94
2022-11-28T05:58:19.781Z,90.65
2022-11-28T06:03:21.732Z,90.95
2022-11-28T06:08:24.990Z,91.85
2022-11-28T06:13:27.860Z,91.75
2022-11-28T06:18:29.792Z,91.84
2022-11-28T06:23:33.407Z,92.16
2022-11-28T06:28:35.992Z,91.83
2022-11-28T06:33:38.507Z,91.53
2022-11-28T06:38:41.987Z,91.29
2022-11-28T06:43:44.065Z,91.09
2022-11-28T06:48:47.338Z,90.69
2022-11-28T06:53:50.957Z,89.61
2022-11-28T06:58:58.509Z,90.25
2022-11-28T07:04:01.934Z,89.71
2022-11-28T07:09:05.222Z,90.50
2022-11-28T07:14:07.231Z,89.55
2022-11-28T07:19:11.612Z,88.71
2022-11-28T07:24:15.212Z,88.64
2022-11-28T07:29:18.881Z,89.12
2022-11-28T07:34:20.847Z,86.04
2022-11-28T07:39:24.174Z,86.98
2022-11-28T07:44:26.124Z,86.87
2022-11-28T07:49:28.185Z,86.19
2022-11-28T07:54:31.562Z,86.76
2022-11-28T07:59:33.531Z,87.27
2022-11-28T08:04:36.656Z,87.10
2022-11-28T08:09:40.166Z,85.45
2022-11-28T08:14:42.805Z,84.24
2022-11-28T08:19:44.869Z,85.98
2022-11-28T08:24:48.266Z,82.36
2022-11-28T08:29:53.544Z,79.68
2022-11-28T08:34:56.004Z,77.17
2022-11-28T08:39:59.289Z,73.29
2022-11-28T08:45:01.305Z,72.65
2022-11-28T08:50:03.768Z,70.37
2022-11-28T08:55:07.899Z,73.98
2022-11-28T09:00:10.869Z,69.89
2022-11-28T09:05:12.865Z,67.76
2022-11-28T09:10:16.484Z,70.99
2022-11-28T09:15:19.161Z,72.13
2022-11-28T09:20:21.787Z,71.42
2022-11-28T09:25:25.086Z,71.58
2022-11-28T09:30:27.131Z,71.00
2022-11-28T09:35:29.072Z,70.55
2022-11-28T09:40:37.000Z,70.88
2022-11-28T09:45:39.307Z,68.44
2022-11-28T09:50:42.674Z,68.42
2022-11-28T09:55:50.807Z,68.09
2022-11-28T10:01:03.183Z,67.86
2022-11-28T10:06:15.346Z,65.22
2022-11-28T10:11:31.086Z,63.60
2022-11-28T10:16:45.650Z,61.15
2022-11-28T10:21:57.848Z,58.90
2022-11-28T10:27:05.550Z,61.83
2022-11-28T10:32:13.704Z,58.89
2022-11-28T10:37:21.235Z,55.38
2022-11-28T10:42:31.676Z,54.73
2022-11-28T10:47:55.996Z,56.37
2022-11-28T10:53:01.599Z,59.00
2022-11-28T10:58:12.743Z,63.49
2022-11-28T11:03:17.372Z,67.89
2022-11-28T11:08:21.708Z,66.91
2022-11-28T11:13:27.137Z,65.30
2022-11-28T11:18:32.463Z,64.51
2022-11-28T11:23:38.232Z,66.47
2022-11-28T11:28:44.984Z,57.89
2022-11-28T11:33:49.863Z,57.76
2022-11-28T11:38:52.471Z,59.21
2022-11-28T11:43:55.763Z,55.34
2022-11-28T11:48:58.396Z,60.82
2022-11-28T11:54:02.593Z,57.22
2022-11-28T11:59:14.336Z,57.68
2022-11-28T12:04:44.658Z,55.89
2022-11-28T12:09:48.397Z,58.47
2022-11-28T12:14:52.617Z,56.01
2022-11-28T12:20:09.636Z,56.52
2022-11-28T12:25:18.465Z,59.05
2022-11-28T12:30:43.378Z,57.13
2022-11-28T12:36:03.339Z,58.20
2022-11-28T12:41:21.078Z,57.45
2022-11-28T12:46:30.655Z,58.62
2022-11-28T12:51:50.145Z,56.39
2022-11-28T12:57:01.327Z,56.69
2022-11-28T13:02:26.877Z,57.77
2022-11-28T13:07:38.906Z,56.82
2022-11-28T13:12:51.081Z,57.31
2022-11-28T13:18:01.252Z,57.55
2022-11-28T13:23:15.903Z,58.93
2022-11-28T13:28:21.934Z,60.26
2022-11-28T13:33:44.922Z,62.14
2022-11-28T13:39:11.747Z,64.43
2022-11-28T13:44:22.009Z,66.74
2022-11-28T13:49:27.402Z,69.44
2022-11-28T13:54:42.108Z,70.75
2022-11-28T13:59:48.755Z,70.92
2022-11-28T14:04:52.271Z,73.30
2022-11-28T14:10:06.305Z,73.95
2022-11-28T14:15:29.726Z,74.87
2022-11-28T14:20:45.509Z,75.93
2022-11-28T14:25:50.241Z,77.33
2022-11-28T14:31:01.751Z,79.22
2022-11-28T14:36:26.044Z,80.40
2022-11-28T14:41:28.057Z,81.31
2022-11-28T14:46:33.867Z,81.28
2022-11-28T14:52:37.032Z,82.69
2022-11-28T14:57:35.936Z,83.27
2022-11-28T15:02:48.971Z,84.26
2022-11-28T15:08:04.493Z,84.09
2022-11-28T15:13:22.771Z,84.47
2022-11-28T15:18:26.695Z,84.89
2022-11-28T15:23:35.009Z,85.28
2022-11-28T15:28:37.662Z,85.62
2022-11-28T15:33:39.846Z,85.25
2022-11-28T15:38:43.549Z,85.39
2022-11-28T15:43:45.852Z,85.21
2022-11-28T15:48:49.471Z,85.74
2022-11-28T15:53:52.773Z,85.78
2022-11-28T15:58:55.004Z,85.69
2022-11-28T16:04:00.949Z,86.94
2022-11-28T16:09:06.566Z,86.65
2022-11-28T16:14:10.665Z,87.21
2022-11-28T16:19:23.371Z,86.69
2022-11-28T16:24:31.188Z,86.81
2022-11-28T16:29:46.352Z,87.01
2022-11-28T16:34:50.885Z,87.42
2022-11-28T16:40:02.360Z,87.72
2022-11-28T16:45:09.558Z,87.70
2022-11-28T16:50:19.961Z,87.71
2022-11-28T16:55:46.080Z,87.52
2022-11-28T17:01:01.079Z,88.22
2022-11-28T17:06:03.206Z,88.18
2022-11-28T17:11:06.633Z,88.38
2022-11-28T17:16:16.273Z,88.93
2022-11-28T17:21:26.878Z,88.70
2022-11-28T17:26:30.128Z,88.42
2022-11-28T17:31:34.978Z,88.66
2022-11-28T17:36:36.982Z,88.46
2022-11-28T17:41:40.796Z,88.24
2022-11-28T17:46:42.788Z,88.61
2022-11-28T17:51:45.182Z,88.16
2022-11-28T17:56:49.732Z,88.40
2022-11-28T18:01:51.764Z,88.96
2022-11-28T18:06:53.821Z,88.92
2022-11-28T18:11:57.175Z,88.54
2022-11-28T18:16:59.172Z,89.44
2022-11-28T18:22:01.197Z,89.20
2022-11-28T18:27:04.568Z,88.96
2022-11-28T18:32:07.292Z,88.78
2022-11-28T18:37:10.690Z,88.81
2022-11-28T18:42:14.048Z,89.47
2022-11-28T18:47:16.422Z,89.63
2022-11-28T18:52:20.424Z,89.54
2022-11-28T18:57:29.447Z,89.49
2022-11-28T19:02:32.506Z,89.57
2022-11-28T19:07:34.652Z,89.34
2022-11-28T19:12:38.275Z,89.58
2022-11-28T19:17:40.499Z,90.14
2022-11-28T19:22:42.452Z,89.80
2022-11-28T19:27:45.713Z,88.81
2022-11-28T19:32:47.676Z,89.63
2022-11-28T19:37:49.759Z,89.40
2022-11-28T19:42:53.048Z,89.94
2022-11-28T19:47:55.049Z,90.03
2022-11-28T19:52:56.958Z,90.00
2022-11-28T19:58:00.266Z,89.74
2022-11-28T20:03:02.212Z,89.52
2022-11-28T20:08:06.079Z,89.47
2022-11-28T20:13:09.450Z,89.41
2022-11-28T20:18:11.397Z,89.37
2022-11-28T20:23:13.368Z,89.49
2022-11-28T20:28:16.644Z,89.68
2022-11-28T20:33:18.682Z,89.73
2022-11-28T20:38:20.823Z,89.43
2022-11-28T20:43:24.107Z,89.23
2022-11-28T20:48:27.528Z,89.48
2022-11-28T20:53:31.267Z,89.01
2022-11-28T20:58:34.867Z,89.08
2022-11-28T21:03:37.052Z,89.13
2022-11-28T21:08:39.608Z,88.24
2022-11-28T21:13:42.951Z,88.42
2022-11-28T21:18:45.976Z,88.10
2022-11-28T21:23:48.068Z,88.35
2022-11-28T21:28:53.556Z,88.41
2022-11-28T21:33:57.180Z,87.89
2022-11-28T21:39:00.771Z,88.50
2022-11-28T21:44:04.538Z,88.17
2022-11-28T21:49:06.544Z,88.60
2022-11-28T21:54:09.689Z,89.13
2022-11-28T21:59:13.070Z,89.39
2022-11-28T22:04:15.117Z,89.26
2022-11-28T22:09:17.027Z,89.59
2022-11-28T22:14:20.266Z,89.49
2022-11-28T22:19:22.582Z,88.93
2022-11-28T22:24:24.700Z,89.12
2022-11-28T22:29:28.023Z,88.94
2022-11-28T22:34:29.986Z,88.09
2022-11-28T22:39:31.927Z,88.10
2022-11-28T22:44:35.200Z,88.18
2022-11-28T22:49:37.128Z,88.69
2022-11-28T22:54:39.081Z,87.91
2022-11-28T22:59:42.340Z,88.16
2022-11-28T23:04:44.463Z,88.35
2022-11-28T23:09:46.495Z,88.92
2022-11-28T23:14:51.661Z,88.50
2022-11-28T23:19:53.579Z,89.38
2022-11-28T23:24:55.498Z,88.99
2022-11-28T23:29:58.820Z,89.04
2022-11-28T23:35:01.101Z,89.03
2022-11-28T23:40:03.763Z,89.06
2022-11-28T23:45:09.063Z,89.14
2022-11-28T23:50:11.216Z,88.69
2022-11-28T23:55:13.128Z,88.49
